Time;durP1;ratioP1;P1;durP2;ratioP2;P2;SDS_P1;SDS_P2;PMS_P1;PMS_P2;Temp;Humidity;BMP_temperature;BMP_pressure;BME280_temperature;BME280_humidity;BME280_pressure;Samples;Min_cycle;Max_cycle;Signal;HPM_P1;HPM_P2
2022/06/15 00:01:05;;;;;;;3.53;1.87;;;16.60;72.40;;;;;;5057656;28;20652;-82
2022/06/15 00:03:37;;;;;;;1.50;1.40;;;16.40;72.50;;;;;;5058841;28;20626;-82
2022/06/15 00:06:08;;;;;;;1.80;1.70;;;16.20;72.80;;;;;;5056542;28;21082;-83
2022/06/15 00:08:35;;;;;;;1.83;1.53;;;16.10;73.00;;;;;;5052884;28;20677;-83
2022/06/15 00:11:08;;;;;;;1.80;1.70;;;16.00;73.40;;;;;;5052357;28;21048;-83
2022/06/15 00:13:36;;;;;;;1.67;1.57;;;15.80;73.40;;;;;;5053508;28;20649;-82
2022/06/15 00:16:05;;;;;;;1.73;1.57;;;15.80;74.70;;;;;;5052628;28;20621;-83
2022/06/15 00:18:33;;;;;;;1.50;1.40;;;15.70;76.00;;;;;;5052230;28;20626;-83
2022/06/15 00:21:01;;;;;;;2.10;1.93;;;15.60;77.10;;;;;;5053149;28;20638;-83
2022/06/15 00:23:31;;;;;;;2.30;2.10;;;15.60;78.10;;;;;;5053901;28;21291;-83
2022/06/15 00:25:58;;;;;;;1.90;1.73;;;15.50;78.50;;;;;;5052712;28;20622;-83
2022/06/15 00:28:26;;;;;;;1.37;1.27;;;15.50;79.10;;;;;;5054020;28;20610;-83
2022/06/15 00:30:54;;;;;;;2.00;1.60;;;15.40;80.30;;;;;;5053882;28;21013;-83
2022/06/15 00:33:22;;;;;;;2.00;1.70;;;15.40;80.30;;;;;;5053849;28;20661;-83
2022/06/15 00:35:58;;;;;;;2.10;1.90;;;15.50;80.90;;;;;;5053290;28;20626;-82
2022/06/15 00:38:26;;;;;;;1.80;1.70;;;15.60;79.80;;;;;;5054267;28;20618;-83
2022/06/15 00:40:55;;;;;;;2.83;2.17;;;15.60;78.80;;;;;;5054551;28;20645;-83
2022/06/15 00:43:36;;;;;;;1.60;1.40;;;15.50;78.70;;;;;;5054423;28;20987;-83
2022/06/15 00:46:17;;;;;;;1.60;1.33;;;15.60;79.10;;;;;;5053598;28;20629;-83
2022/06/15 00:48:47;;;;;;;1.63;1.37;;;15.50;78.60;;;;;;5051802;28;20619;-83
2022/06/15 00:51:16;;;;;;;2.40;2.20;;;15.50;78.70;;;;;;5052624;28;20680;-83
2022/06/15 00:53:44;;;;;;;1.80;1.70;;;15.30;81.10;;;;;;5052948;28;20658;-83
2022/06/15 00:56:16;;;;;;;1.30;1.13;;;15.30;80.40;;;;;;5052307;28;21219;-83
2022/06/15 00:58:48;;;;;;;3.97;2.43;;;15.20;83.70;;;;;;5054036;28;20964;-83
2022/06/15 01:01:15;;;;;;;1.93;1.83;;;15.00;83.80;;;;;;5053268;28;20630;-83
2022/06/15 01:03:43;;;;;;;2.00;1.67;;;15.10;85.40;;;;;;5053594;28;20626;-82
2022/06/15 01:06:16;;;;;;;1.73;1.63;;;15.30;85.70;;;;;;5052691;28;20615;-83
2022/06/15 01:08:53;;;;;;;2.33;1.93;;;15.40;82.90;;;;;;5054772;28;20642;-83
2022/06/15 01:11:30;;;;;;;2.20;1.53;;;15.50;82.80;;;;;;5053434;28;20819;-83
2022/06/15 01:14:21;;;;;;;2.33;1.70;;;15.50;83.10;;;;;;5053454;28;20654;-83
2022/06/15 01:16:56;;;;;;;1.70;1.60;;;15.40;83.30;;;;;;5054420;28;20754;-83
2022/06/15 01:20:05;;;;;;;1.73;1.63;;;15.40;82.80;;;;;;5040846;28;20728;-83
2022/06/15 01:22:50;;;;;;;2.30;2.07;;;15.40;82.40;;;;;;5053278;28;20630;-83
2022/06/15 01:25:34;;;;;;;3.17;1.97;;;15.50;83.20;;;;;;5055152;28;21271;-83
2022/06/15 01:28:34;;;;;;;1.50;1.40;;;15.50;81.20;;;;;;5057048;28;20623;-83
2022/06/15 01:31:11;;;;;;;2.33;1.80;;;15.30;83.10;;;;;;5057520;28;20632;-83
2022/06/15 01:33:50;;;;;;;1.73;1.63;;;15.30;83.30;;;;;;5055114;28;20766;-83
2022/06/15 01:36:27;;;;;;;1.53;1.43;;;15.30;85.90;;;;;;5055207;28;20655;-83
2022/06/15 01:39:02;;;;;;;1.73;1.63;;;15.20;84.50;;;;;;5055688;28;20621;-83
2022/06/15 01:41:34;;;;;;;1.97;1.63;;;15.20;84.90;;;;;;5050838;28;20673;-83
2022/06/15 01:44:08;;;;;;;2.53;1.53;;;15.30;84.50;;;;;;5056652;28;20625;-83
2022/06/15 01:46:41;;;;;;;2.87;2.20;;;15.20;86.00;;;;;;5057531;28;21207;-83
2022/06/15 01:49:15;;;;;;;1.50;1.40;;;15.10;87.90;;;;;;5059488;28;20721;-83
2022/06/15 01:51:45;;;;;;;2.20;2.00;;;14.90;88.20;;;;;;5059183;28;20628;-83
2022/06/15 01:54:16;;;;;;;6.77;2.17;;;14.80;88.60;;;;;;5058112;28;20668;-83
2022/06/15 01:56:48;;;;;;;1.83;1.57;;;14.80;89.60;;;;;;5051451;28;20634;-84
2022/06/15 01:59:20;;;;;;;2.50;2.17;;;14.60;88.80;;;;;;5036994;28;20627;-82
2022/06/15 02:01:58;;;;;;;1.70;1.60;;;14.60;90.00;;;;;;5037186;28;20614;-83
2022/06/15 02:04:34;;;;;;;1.30;1.20;;;14.60;90.30;;;;;;5054085;28;20652;-83
2022/06/15 02:07:16;;;;;;;1.40;1.30;;;14.40;90.60;;;;;;5050005;28;20665;-83
2022/06/15 02:09:50;;;;;;;2.00;1.63;;;14.40;91.30;;;;;;5052994;28;20672;-83
2022/06/15 02:12:22;;;;;;;2.50;2.10;;;14.50;90.50;;;;;;5053587;28;20610;-83
2022/06/15 02:14:56;;;;;;;1.73;1.63;;;14.50;90.30;;;;;;5053017;28;21203;-83
2022/06/15 02:17:28;;;;;;;1.43;1.33;;;14.50;90.30;;;;;;5052936;28;20709;-82
2022/06/15 02:20:00;;;;;;;2.23;2.03;;;14.50;91.00;;;;;;5054155;28;20641;-83
2022/06/15 02:22:32;;;;;;;2.87;2.10;;;14.30;91.10;;;;;;5053700;28;20646;-82
2022/06/15 02:25:01;;;;;;;1.77;1.67;;;14.30;90.70;;;;;;5052005;28;20667;-83
2022/06/15 02:27:31;;;;;;;2.50;1.90;;;14.30;91.50;;;;;;5053578;28;20689;-82
2022/06/15 02:30:05;;;;;;;2.57;1.93;;;14.20;91.20;;;;;;5052818;28;20614;-82
2022/06/15 02:32:36;;;;;;;1.87;1.73;;;14.20;92.00;;;;;;5053154;28;21238;-82
2022/06/15 02:35:03;;;;;;;1.70;1.30;;;14.30;91.30;;;;;;5053346;28;20657;-82
2022/06/15 02:37:30;;;;;;;1.93;1.73;;;14.20;90.60;;;;;;5053182;28;20725;-83
2022/06/15 02:39:57;;;;;;;2.00;1.87;;;14.20;90.50;;;;;;5052548;28;20641;-83
2022/06/15 02:42:28;;;;;;;2.50;2.30;;;14.00;91.70;;;;;;5057321;28;20626;-82
2022/06/15 02:44:59;;;;;;;2.03;1.83;;;14.10;91.60;;;;;;5057700;28;20637;-83
2022/06/15 02:47:30;;;;;;;2.33;1.73;;;13.90;92.20;;;;;;5057249;28;20606;-83
2022/06/15 02:49:59;;;;;;;1.60;1.30;;;14.00;92.20;;;;;;5054330;28;20622;-83
2022/06/15 02:52:30;;;;;;;3.10;2.27;;;14.00;91.90;;;;;;5057913;28;20752;-83
2022/06/15 02:54:58;;;;;;;2.70;2.00;;;14.00;91.60;;;;;;5058036;28;20622;-83
2022/06/15 02:57:25;;;;;;;3.00;1.87;;;13.90;91.20;;;;;;5058119;28;20676;-82
2022/06/15 02:59:52;;;;;;;2.47;1.73;;;13.90;92.20;;;;;;5058425;28;20644;-83
2022/06/15 03:02:20;;;;;;;3.13;2.77;;;13.80;92.30;;;;;;5057662;28;21052;-83
2022/06/15 03:04:47;;;;;;;2.17;1.97;;;13.90;91.30;;;;;;5057829;28;20618;-82
2022/06/15 03:07:16;;;;;;;1.93;1.83;;;13.90;91.90;;;;;;5056958;28;20610;-82
2022/06/15 03:09:43;;;;;;;3.80;2.60;;;13.70;92.80;;;;;;5058871;28;20633;-83
2022/06/15 03:12:11;;;;;;;1.70;1.60;;;13.70;93.30;;;;;;5058805;28;20695;-83
2022/06/15 03:14:44;;;;;;;2.63;2.13;;;13.80;92.40;;;;;;5056909;28;20662;-83
2022/06/15 03:17:11;;;;;;;2.53;1.87;;;13.70;92.80;;;;;;5059532;28;20622;-82
2022/06/15 03:19:37;;;;;;;2.37;2.17;;;13.70;92.70;;;;;;5056001;28;20707;-82
2022/06/15 03:22:05;;;;;;;2.13;1.93;;;13.80;92.10;;;;;;5057219;28;20623;-82
2022/06/15 03:24:33;;;;;;;2.50;2.30;;;13.80;91.80;;;;;;5056094;28;20661;-83
2022/06/15 03:27:00;;;;;;;1.77;1.67;;;13.70;92.00;;;;;;5056103;28;20646;-82
2022/06/15 03:29:27;;;;;;;1.60;1.50;;;13.70;93.10;;;;;;5056336;28;20653;-83
2022/06/15 03:31:54;;;;;;;2.00;1.67;;;13.80;91.90;;;;;;5056412;28;21015;-83
2022/06/15 03:34:21;;;;;;;1.83;1.73;;;13.90;91.70;;;;;;5057162;28;20673;-83
2022/06/15 03:36:48;;;;;;;1.97;1.83;;;13.90;93.00;;;;;;5036128;28;20602;-83
2022/06/15 03:39:15;;;;;;;2.00;1.80;;;13.80;92.90;;;;;;5050586;28;20652;-82
2022/06/15 03:41:44;;;;;;;2.73;2.17;;;13.90;93.60;;;;;;5053153;28;20622;-83
2022/06/15 03:44:11;;;;;;;1.90;1.70;;;13.80;92.70;;;;;;5053927;28;20645;-82
2022/06/15 03:46:38;;;;;;;2.17;2.00;;;13.80;92.40;;;;;;5052506;28;20629;-82
2022/06/15 03:49:05;;;;;;;2.17;1.63;;;13.90;91.90;;;;;;5052446;28;20618;-83
2022/06/15 03:51:32;;;;;;;2.27;2.10;;;13.90;91.70;;;;;;5052141;28;20630;-83
2022/06/15 03:53:59;;;;;;;2.60;1.97;;;14.10;92.00;;;;;;5052407;28;20662;-82
2022/06/15 03:56:41;;;;;;;2.20;1.57;;;14.20;91.80;;;;;;5051378;28;20716;-83
2022/06/15 03:59:09;;;;;;;3.50;2.43;;;14.20;91.80;;;;;;5053002;28;20666;-83
2022/06/15 04:01:36;;;;;;;1.47;1.37;;;14.20;92.30;;;;;;5047025;28;21179;-83
2022/06/15 04:04:03;;;;;;;2.23;2.03;;;14.30;92.30;;;;;;5051743;28;20625;-83
2022/06/15 04:06:30;;;;;;;2.37;2.17;;;14.30;92.00;;;;;;5050128;28;21188;-83
2022/06/15 04:08:56;;;;;;;2.27;1.60;;;14.50;91.90;;;;;;5049522;28;20610;-83
2022/06/15 04:14:10;;;;;;;1.53;1.43;;;14.80;90.00;;;;;;5050341;28;20228;-83
2022/06/15 04:16:37;;;;;;;3.00;2.07;;;14.90;90.60;;;;;;5050095;28;21117;-83
2022/06/15 04:19:07;;;;;;;2.00;1.60;;;15.00;89.80;;;;;;5049735;28;20630;-84
2022/06/15 04:21:34;;;;;;;1.90;1.67;;;15.10;87.80;;;;;;5049135;28;20626;-83
2022/06/15 04:24:01;;;;;;;5.03;3.07;;;15.20;87.50;;;;;;5051335;28;20646;-83
2022/06/15 04:26:28;;;;;;;1.77;1.47;;;15.30;88.60;;;;;;5053015;28;20622;-83
2022/06/15 04:28:55;;;;;;;1.63;1.50;;;15.30;90.20;;;;;;5052856;28;20646;-83
2022/06/15 04:31:23;;;;;;;1.50;1.33;;;15.20;90.60;;;;;;5051941;28;20622;-83
2022/06/15 04:33:51;;;;;;;1.17;1.07;;;15.20;91.30;;;;;;5051729;28;20661;-83
2022/06/15 04:36:17;;;;;;;1.60;1.50;;;15.10;91.20;;;;;;5051160;28;21054;-83
2022/06/15 04:38:44;;;;;;;2.33;2.13;;;15.10;91.40;;;;;;5053113;28;20650;-83
2022/06/15 04:41:11;;;;;;;2.43;2.23;;;15.10;91.30;;;;;;5054050;28;20610;-83
2022/06/15 04:43:38;;;;;;;1.80;1.60;;;15.10;91.10;;;;;;5053578;28;20998;-83
2022/06/15 04:46:05;;;;;;;2.03;1.80;;;15.10;91.40;;;;;;5054702;28;20622;-83
2022/06/15 04:48:33;;;;;;;2.30;2.10;;;15.10;91.30;;;;;;5053840;28;21003;-83
2022/06/15 04:51:11;;;;;;;2.00;1.87;;;15.30;91.40;;;;;;5054585;28;20700;-83
2022/06/15 04:53:37;;;;;;;1.23;1.13;;;15.30;91.80;;;;;;5054650;28;20735;-83
2022/06/15 04:56:05;;;;;;;1.77;1.67;;;15.30;92.40;;;;;;5052406;28;20626;-83
2022/06/15 04:58:32;;;;;;;2.17;1.40;;;15.40;92.60;;;;;;5053614;28;20616;-83
2022/06/15 05:00:59;;;;;;;1.80;1.60;;;15.50;92.10;;;;;;5052413;28;20623;-83
2022/06/15 05:03:26;;;;;;;4.33;1.80;;;15.60;92.40;;;;;;5033774;28;20673;-83
2022/06/15 05:05:57;;;;;;;2.77;1.93;;;15.60;92.30;;;;;;5050376;28;20644;-83
2022/06/15 05:08:24;;;;;;;1.70;1.60;;;15.80;91.30;;;;;;5052142;28;20610;-83
2022/06/15 05:10:51;;;;;;;3.83;2.10;;;15.80;91.40;;;;;;5052862;28;20729;-84
2022/06/15 05:13:18;;;;;;;1.67;1.50;;;15.90;90.90;;;;;;5048004;28;21250;-84
2022/06/15 05:15:45;;;;;;;2.27;2.07;;;16.20;89.40;;;;;;5049904;28;20674;-83
2022/06/15 05:18:12;;;;;;;1.80;1.70;;;16.30;88.60;;;;;;5052341;28;20684;-83
2022/06/15 05:20:40;;;;;;;1.80;1.70;;;16.30;88.90;;;;;;5053885;28;20653;-83
2022/06/15 05:23:13;;;;;;;1.80;1.70;;;16.40;88.60;;;;;;5038640;28;20626;-83
2022/06/15 05:25:40;;;;;;;1.40;1.20;;;16.40;88.90;;;;;;5051115;28;20662;-84
2022/06/15 05:28:08;;;;;;;1.60;1.50;;;16.50;87.90;;;;;;5050448;28;20627;-84
2022/06/15 05:30:35;;;;;;;2.30;2.10;;;16.60;88.10;;;;;;5051635;28;20638;-84
2022/06/15 05:33:02;;;;;;;2.30;2.13;;;16.80;87.70;;;;;;5048452;28;20665;-84
2022/06/15 05:35:29;;;;;;;2.30;2.07;;;16.90;86.50;;;;;;5047201;28;21364;-83
2022/06/15 05:37:56;;;;;;;1.60;1.50;;;17.00;85.60;;;;;;5050555;28;20658;-84
2022/06/15 05:40:24;;;;;;;1.40;1.30;;;17.10;84.60;;;;;;5049151;28;20715;-84
2022/06/15 05:42:51;;;;;;;2.00;1.90;;;17.20;84.50;;;;;;5047925;28;20669;-84
2022/06/15 05:45:18;;;;;;;1.97;1.77;;;17.30;84.50;;;;;;5048364;28;21235;-84
2022/06/15 05:47:45;;;;;;;2.10;2.00;;;17.40;85.00;;;;;;5049278;28;20671;-84
2022/06/15 05:50:14;;;;;;;4.07;1.83;;;17.50;82.50;;;;;;5042680;28;20695;-83
2022/06/15 05:52:41;;;;;;;2.50;2.03;;;17.60;82.70;;;;;;5045832;28;20662;-85
2022/06/15 05:55:08;;;;;;;2.57;1.93;;;17.70;82.40;;;;;;5041433;28;20650;-84
2022/06/15 05:57:37;;;;;;;2.13;1.83;;;17.80;82.40;;;;;;5049772;28;20723;-83
2022/06/15 06:00:05;;;;;;;1.93;1.60;;;17.90;82.00;;;;;;5048423;28;20654;-83
2022/06/15 06:02:32;;;;;;;1.70;1.60;;;18.00;80.60;;;;;;5047712;28;20602;-83
2022/06/15 06:04:59;;;;;;;2.03;1.50;;;18.10;80.00;;;;;;5047348;28;20684;-84
2022/06/15 06:07:26;;;;;;;1.60;1.50;;;18.20;78.60;;;;;;5046544;28;20665;-84
2022/06/15 06:09:53;;;;;;;2.00;1.90;;;18.20;78.50;;;;;;5046657;28;20730;-84
2022/06/15 06:12:20;;;;;;;1.93;1.73;;;18.30;78.30;;;;;;5047988;28;20684;-85
2022/06/15 06:14:50;;;;;;;2.33;2.13;;;18.60;77.30;;;;;;5046850;28;21117;-84
2022/06/15 06:17:17;;;;;;;1.50;1.40;;;18.60;78.10;;;;;;5045924;28;20622;-84
2022/06/15 06:19:44;;;;;;;2.43;1.70;;;18.70;78.80;;;;;;5046962;28;20717;-84
2022/06/15 06:22:11;;;;;;;2.47;1.80;;;18.70;77.80;;;;;;5047016;28;21167;-84
2022/06/15 06:24:38;;;;;;;1.70;1.60;;;18.70;77.90;;;;;;5046509;28;20681;-84
2022/06/15 06:27:06;;;;;;;1.40;1.30;;;18.70;78.10;;;;;;5047232;28;20676;-83
2022/06/15 06:29:34;;;;;;;1.77;1.67;;;18.80;78.20;;;;;;5040658;28;21158;-83
2022/06/15 06:32:02;;;;;;;1.80;1.70;;;19.00;77.10;;;;;;5045529;28;20654;-84
2022/06/15 06:34:31;;;;;;;2.13;1.70;;;19.10;77.30;;;;;;5046890;28;20666;-84
2022/06/15 06:37:00;;;;;;;1.60;1.50;;;19.20;76.50;;;;;;5044759;28;21053;-83
2022/06/15 06:39:29;;;;;;;1.90;1.63;;;19.20;76.00;;;;;;5046660;28;21317;-83
2022/06/15 06:41:58;;;;;;;1.97;1.87;;;19.20;76.80;;;;;;5045956;28;20687;-83
2022/06/15 06:44:25;;;;;;;2.00;1.80;;;19.20;78.00;;;;;;5046442;28;21212;-84
2022/06/15 06:46:54;;;;;;;3.40;2.17;;;19.30;78.70;;;;;;5046611;28;20630;-84
2022/06/15 06:49:23;;;;;;;2.20;2.00;;;19.50;77.10;;;;;;5045855;28;20704;-84
2022/06/15 06:51:50;;;;;;;1.73;1.63;;;19.60;76.80;;;;;;5047162;28;20634;-83
2022/06/15 06:54:19;;;;;;;3.70;2.27;;;19.50;76.90;;;;;;5047657;28;20650;-84
2022/06/15 06:56:46;;;;;;;2.23;2.03;;;19.60;78.10;;;;;;5046012;28;21249;-83
2022/06/15 06:59:15;;;;;;;2.00;1.90;;;19.70;77.20;;;;;;5047283;28;21164;-83
2022/06/15 07:01:44;;;;;;;1.60;1.50;;;19.90;77.90;;;;;;5047730;28;20614;-84
2022/06/15 07:04:12;;;;;;;2.97;1.67;;;20.00;76.40;;;;;;5046776;28;21260;-83
2022/06/15 07:06:42;;;;;;;2.00;1.80;;;20.00;76.90;;;;;;5046832;28;20622;-83
2022/06/15 07:09:09;;;;;;;2.03;1.60;;;20.00;76.30;;;;;;5046885;28;21192;-84
2022/06/15 07:11:37;;;;;;;2.30;1.70;;;20.10;74.60;;;;;;5047275;28;20680;-83
2022/06/15 07:14:05;;;;;;;1.53;1.43;;;20.20;74.10;;;;;;5046919;28;20760;-84
2022/06/15 07:16:32;;;;;;;1.73;1.63;;;20.40;73.90;;;;;;5043795;28;20729;-83
2022/06/15 07:18:59;;;;;;;2.10;1.90;;;20.50;73.40;;;;;;5045794;28;20979;-83
2022/06/15 07:21:28;;;;;;;1.40;1.30;;;20.70;73.30;;;;;;5047721;28;20618;-84
2022/06/15 07:23:58;;;;;;;1.73;1.63;;;20.70;72.20;;;;;;5047779;28;20678;-83
2022/06/15 07:26:28;;;;;;;2.33;1.83;;;20.80;73.80;;;;;;5045586;28;20637;-84
2022/06/15 07:28:55;;;;;;;1.83;1.73;;;20.90;74.80;;;;;;5050779;28;20634;-83
2022/06/15 07:31:24;;;;;;;2.20;2.00;;;20.90;74.10;;;;;;5051595;28;20616;-83
2022/06/15 07:33:51;;;;;;;2.80;2.10;;;21.00;73.50;;;;;;5046966;28;20629;-83
2022/06/15 07:36:19;;;;;;;1.77;1.67;;;21.10;75.30;;;;;;5049725;28;20733;-84
2022/06/15 07:38:46;;;;;;;2.30;1.67;;;21.30;74.10;;;;;;5050956;28;20717;-83
2022/06/15 07:41:15;;;;;;;2.20;2.00;;;21.20;74.00;;;;;;5050374;28;20676;-83
2022/06/15 07:43:42;;;;;;;2.73;2.27;;;21.30;70.90;;;;;;5048533;28;20729;-84
2022/06/15 07:46:09;;;;;;;1.60;1.50;;;21.40;72.00;;;;;;5050024;28;20625;-84
2022/06/15 07:51:28;;;;;;;1.80;1.70;;;21.60;71.00;;;;;;5043193;28;20633;-83
2022/06/15 07:53:55;;;;;;;2.27;2.07;;;21.40;71.10;;;;;;5038591;28;20699;-83
2022/06/15 07:56:24;;;;;;;2.87;1.97;;;21.60;71.70;;;;;;5048960;28;20725;-83
2022/06/15 07:58:51;;;;;;;1.97;1.87;;;21.70;72.60;;;;;;5049471;28;20724;-84
2022/06/15 08:01:18;;;;;;;2.10;1.93;;;21.80;74.70;;;;;;5049515;28;20629;-83
2022/06/15 08:03:45;;;;;;;2.47;2.27;;;21.70;72.00;;;;;;5049984;28;21176;-84
2022/06/15 08:06:13;;;;;;;2.80;2.33;;;22.00;72.40;;;;;;5048743;28;20626;-84
2022/06/15 08:08:41;;;;;;;3.60;2.47;;;22.20;71.80;;;;;;5048772;28;20630;-84
2022/06/15 08:11:07;;;;;;;2.50;2.30;;;22.30;72.50;;;;;;5049758;28;21350;-83
2022/06/15 08:13:36;;;;;;;2.10;2.00;;;22.10;70.60;;;;;;5049335;28;20662;-84
2022/06/15 08:16:04;;;;;;;4.30;3.60;;;22.20;72.50;;;;;;5062728;28;20683;-84
2022/06/15 08:18:34;;;;;;;2.50;2.30;;;22.50;72.50;;;;;;5064089;28;20626;-84
2022/06/15 08:21:05;;;;;;;5.83;2.23;;;22.70;73.90;;;;;;5047921;28;20778;-84
2022/06/15 08:23:35;;;;;;;3.20;2.83;;;22.60;72.70;;;;;;5048732;28;20749;-83
2022/06/15 08:26:05;;;;;;;2.40;2.20;;;22.80;71.60;;;;;;5048654;28;20978;-84
2022/06/15 08:28:35;;;;;;;2.37;2.13;;;23.00;71.30;;;;;;5049131;28;21030;-84
2022/06/15 08:31:04;;;;;;;2.77;2.57;;;23.20;69.90;;;;;;5048879;28;20747;-84
2022/06/15 08:33:31;;;;;;;2.53;2.33;;;23.30;69.90;;;;;;5047265;28;20666;-83
2022/06/15 08:35:58;;;;;;;2.37;2.03;;;23.40;72.70;;;;;;5048878;28;20759;-84
2022/06/15 08:38:27;;;;;;;3.13;2.37;;;23.50;72.30;;;;;;5048013;28;20621;-83
2022/06/15 08:40:56;;;;;;;2.80;2.33;;;23.20;70.00;;;;;;5048994;28;20672;-83
2022/06/15 08:43:53;;;;;;;2.03;1.93;;;23.20;70.20;;;;;;5049405;28;20618;-83
2022/06/15 08:46:33;;;;;;;2.67;2.47;;;23.30;70.10;;;;;;5046191;28;21181;-84
2022/06/15 08:49:15;;;;;;;2.63;2.43;;;23.60;67.80;;;;;;5049562;28;20732;-83
2022/06/15 08:51:44;;;;;;;1.97;1.87;;;23.40;66.70;;;;;;5047538;28;20707;-82
2022/06/15 08:54:18;;;;;;;2.87;2.20;;;23.40;65.30;;;;;;5048705;28;20970;-84
2022/06/15 08:56:47;;;;;;;2.90;2.27;;;23.40;65.20;;;;;;5048561;28;20629;-83
2022/06/15 08:59:20;;;;;;;2.60;2.10;;;23.70;65.50;;;;;;5049383;28;21230;-84
2022/06/15 09:01:56;;;;;;;2.70;2.40;;;23.80;65.60;;;;;;5048650;28;20638;-84
2022/06/15 09:04:33;;;;;;;2.10;2.00;;;24.00;64.10;;;;;;5049160;28;20676;-83
2022/06/15 09:07:14;;;;;;;3.30;2.60;;;24.20;65.10;;;;;;5047328;28;20650;-84
2022/06/15 09:09:53;;;;;;;1.87;1.77;;;24.20;64.50;;;;;;5048588;28;20684;-84
2022/06/15 09:15:29;;;;;;;2.50;2.30;;;24.50;66.00;;;;;;5032242;28;20658;-85
2022/06/15 09:18:00;;;;;;;2.93;2.50;;;24.60;63.40;;;;;;5048811;28;20626;-84
2022/06/15 09:20:33;;;;;;;2.40;2.20;;;24.90;65.20;;;;;;5048083;28;20614;-84
2022/06/15 09:23:07;;;;;;;3.13;2.40;;;24.90;65.10;;;;;;5048052;28;21094;-84
2022/06/15 09:25:40;;;;;;;3.20;2.90;;;25.00;63.80;;;;;;5046291;28;20638;-84
2022/06/15 09:28:14;;;;;;;2.80;2.50;;;25.20;63.70;;;;;;5048543;28;20640;-83
2022/06/15 09:30:42;;;;;;;2.53;2.33;;;25.30;62.00;;;;;;5048057;28;20736;-84
2022/06/15 09:33:17;;;;;;;2.40;2.20;;;25.50;59.50;;;;;;5047493;28;20637;-84
2022/06/15 09:35:48;;;;;;;2.60;2.40;;;25.60;61.00;;;;;;5046470;28;20645;-83
2022/06/15 09:38:16;;;;;;;4.53;2.60;;;25.60;58.50;;;;;;5047701;28;20661;-85
2022/06/15 09:40:49;;;;;;;3.00;2.80;;;25.80;60.30;;;;;;5047324;28;20697;-84
2022/06/15 09:43:27;;;;;;;2.87;2.17;;;25.80;59.20;;;;;;5048007;28;21266;-84
2022/06/15 09:46:04;;;;;;;3.20;2.83;;;25.90;59.70;;;;;;5045953;28;20638;-85
2022/06/15 09:48:46;;;;;;;2.40;2.20;;;26.00;58.90;;;;;;5047029;28;20626;-83
2022/06/15 09:51:20;;;;;;;2.37;2.17;;;25.80;56.90;;;;;;5032104;28;20748;-84
2022/06/15 09:53:56;;;;;;;2.40;2.20;;;25.70;59.90;;;;;;5028750;28;20615;-84
2022/06/15 09:56:24;;;;;;;2.13;1.93;;;26.00;61.30;;;;;;5046621;28;20662;-84
2022/06/15 09:58:55;;;;;;;2.40;2.20;;;26.20;61.80;;;;;;5047079;28;20626;-83
2022/06/15 10:01:23;;;;;;;2.90;2.20;;;26.40;60.90;;;;;;5047679;28;20718;-84
2022/06/15 10:07:37;;;;;;;4.00;3.00;;;26.70;59.10;;;;;;5036274;28;20686;-85
2022/06/15 10:10:17;;;;;;;2.23;2.13;;;26.90;58.70;;;;;;5046983;28;21333;-84
2022/06/15 10:12:58;;;;;;;2.70;2.53;;;26.80;59.70;;;;;;5046602;28;20642;-84
2022/06/15 10:15:29;;;;;;;2.30;2.20;;;27.00;58.80;;;;;;5046183;28;20711;-84
2022/06/15 10:18:01;;;;;;;2.97;2.67;;;27.00;58.20;;;;;;5046061;28;20720;-85
2022/06/15 10:20:33;;;;;;;1.87;1.73;;;27.30;59.50;;;;;;5046946;28;20676;-84
2022/06/15 10:23:18;;;;;;;3.30;2.27;;;27.20;55.30;;;;;;5047752;28;20722;-84
2022/06/15 10:25:52;;;;;;;2.50;2.30;;;27.20;57.70;;;;;;5047234;28;20630;-85
2022/06/15 10:28:23;;;;;;;2.60;2.40;;;27.40;56.60;;;;;;5047353;28;20708;-84
2022/06/15 10:30:56;;;;;;;2.60;2.40;;;27.60;57.80;;;;;;5047386;28;20623;-84
2022/06/15 10:33:23;;;;;;;2.30;2.17;;;27.70;56.70;;;;;;5047586;28;21172;-84
2022/06/15 10:35:54;;;;;;;2.93;2.67;;;27.70;54.20;;;;;;5047216;28;20705;-84
2022/06/15 10:38:23;;;;;;;2.60;2.40;;;27.80;55.70;;;;;;5047354;28;21165;-84
2022/06/15 10:40:55;;;;;;;2.70;2.50;;;28.10;55.70;;;;;;5046616;28;20658;-84
2022/06/15 10:43:29;;;;;;;3.20;2.10;;;28.20;55.50;;;;;;5047427;28;20690;-84
2022/06/15 10:45:59;;;;;;;2.93;2.60;;;28.20;54.30;;;;;;5047168;28;20634;-85
2022/06/15 10:48:31;;;;;;;2.23;2.13;;;28.30;55.80;;;;;;5047828;28;20614;-84
2022/06/15 10:51:02;;;;;;;2.50;2.30;;;28.00;52.70;;;;;;5047088;28;20626;-84
2022/06/15 10:53:36;;;;;;;2.43;2.23;;;28.20;53.00;;;;;;5047403;28;20725;-84
2022/06/15 11:04:33;;;;;;;2.50;2.30;;;28.80;53.40;;;;;;5051135;28;20614;-84
2022/06/15 11:07:06;;;;;;;3.40;2.73;;;29.10;52.40;;;;;;5050323;28;20649;-85
2022/06/15 11:09:38;;;;;;;3.10;2.80;;;29.50;54.10;;;;;;5051449;28;20622;-85
2022/06/15 11:12:22;;;;;;;2.60;2.40;;;29.70;53.10;;;;;;5050206;28;20635;-84
2022/06/15 11:14:53;;;;;;;3.00;2.60;;;29.90;52.10;;;;;;5051038;28;20680;-85
2022/06/15 11:20:24;;;;;;;2.77;2.57;;;29.60;53.10;;;;;;5050945;28;20621;-84
2022/06/15 11:22:56;;;;;;;2.40;2.20;;;30.00;51.40;;;;;;5049495;28;20672;-85
2022/06/15 11:25:35;;;;;;;3.77;2.97;;;30.20;50.50;;;;;;5051052;28;20634;-84
2022/06/15 11:28:06;;;;;;;2.50;2.30;;;30.60;49.80;;;;;;5049629;28;20700;-84
2022/06/15 11:30:36;;;;;;;2.80;2.60;;;30.80;49.10;;;;;;5051000;28;20616;-83
2022/06/15 11:33:08;;;;;;;2.60;2.40;;;31.10;49.80;;;;;;5050567;28;20640;-83
2022/06/15 11:35:40;;;;;;;2.30;2.20;;;31.30;49.00;;;;;;5050761;28;20777;-85
2022/06/15 11:38:17;;;;;;;2.60;2.20;;;31.60;48.20;;;;;;5049913;28;20614;-85
2022/06/15 11:40:50;;;;;;;2.70;2.50;;;31.80;46.70;;;;;;5050959;28;20663;-86
2022/06/15 11:43:21;;;;;;;2.03;1.93;;;32.00;46.00;;;;;;5049608;28;20729;-85
2022/06/15 11:46:11;;;;;;;2.40;2.30;;;32.20;45.30;;;;;;5050340;28;20646;-84
2022/06/15 11:48:49;;;;;;;2.57;2.37;;;32.60;43.60;;;;;;5051003;28;20614;-83
2022/06/15 11:51:29;;;;;;;2.30;2.20;;;32.90;43.90;;;;;;5050348;28;20721;-85
2022/06/15 11:54:09;;;;;;;2.23;2.13;;;33.20;45.30;;;;;;5049813;28;20679;-85
2022/06/15 11:56:47;;;;;;;2.83;2.63;;;32.60;42.00;;;;;;5050104;28;21030;-85
2022/06/15 11:59:25;;;;;;;2.00;1.90;;;33.20;43.90;;;;;;5049993;28;20630;-85
2022/06/15 12:01:57;;;;;;;2.10;2.00;;;34.10;46.00;;;;;;5050274;28;20653;-85
2022/06/15 12:04:48;;;;;;;2.70;2.50;;;35.00;42.70;;;;;;5049708;28;20636;-85
2022/06/15 12:07:25;;;;;;;2.20;2.00;;;35.80;41.80;;;;;;5049686;28;20702;-86
2022/06/15 12:10:03;;;;;;;2.43;2.33;;;36.40;41.20;;;;;;5048632;28;20645;-84
2022/06/15 12:12:40;;;;;;;2.08;1.98;;;37.10;40.30;;;;;;5049755;28;20207;-85
2022/06/15 12:15:39;;;;;;;2.47;2.38;;;37.70;37.80;;;;;;5050292;28;20230;-83
2022/06/15 12:18:24;;;;;;;1.90;1.80;;;36.90;38.10;;;;;;5045907;28;20242;-84
2022/06/15 12:20:58;;;;;;;2.10;2.00;;;37.70;40.80;;;;;;5049925;28;20203;-84
2022/06/15 12:23:43;;;;;;;2.63;2.42;;;38.60;37.70;;;;;;5049817;28;20261;-84
2022/06/15 12:26:28;;;;;;;2.47;2.28;;;38.80;34.70;;;;;;5049413;28;20634;-84
2022/06/15 12:29:06;;;;;;;2.00;1.90;;;39.00;37.10;;;;;;5050053;28;20318;-83
2022/06/15 12:31:42;;;;;;;2.38;2.17;;;39.10;37.40;;;;;;5049173;28;20759;-83
2022/06/15 12:34:15;;;;;;;2.53;2.42;;;39.30;36.10;;;;;;5049947;28;20208;-82
2022/06/15 12:36:47;;;;;;;2.40;2.20;;;38.70;37.40;;;;;;5049020;28;20241;-82
2022/06/15 12:39:21;;;;;;;2.30;2.20;;;38.90;36.70;;;;;;5049482;28;20227;-83
2022/06/15 12:44:38;;;;;;;1.98;1.88;;;39.00;35.50;;;;;;5049584;28;20199;-82
2022/06/15 12:47:09;;;;;;;2.03;1.92;;;38.80;35.50;;;;;;5048894;28;20234;-83
2022/06/15 12:49:43;;;;;;;2.17;2.08;;;39.30;35.00;;;;;;5049556;28;20692;-83
2022/06/15 12:52:17;;;;;;;2.00;1.90;;;39.60;34.00;;;;;;5049344;28;20211;-82
2022/06/15 12:54:56;;;;;;;2.50;2.30;;;40.00;33.00;;;;;;5049323;28;20199;-83
2022/06/15 12:57:33;;;;;;;1.65;1.55;;;40.10;34.60;;;;;;5048716;28;20674;-82
2022/06/15 13:00:07;;;;;;;2.22;2.13;;;40.50;34.90;;;;;;5049544;28;20749;-83
2022/06/15 13:02:46;;;;;;;2.20;2.00;;;40.50;33.50;;;;;;5048742;28;20254;-82
2022/06/15 13:05:20;;;;;;;2.15;2.05;;;40.40;32.70;;;;;;5049048;28;20671;-82
2022/06/15 13:08:22;;;;;;;2.10;2.00;;;40.70;33.90;;;;;;5048519;28;20703;-82
2022/06/15 13:11:17;;;;;;;2.47;2.38;;;40.80;33.90;;;;;;5048411;28;20267;-83
2022/06/15 13:13:49;;;;;;;2.88;2.55;;;41.20;33.60;;;;;;5025031;28;20572;-83
2022/06/15 13:16:33;;;;;;;2.10;2.00;;;41.30;33.60;;;;;;5048222;28;20225;-82
2022/06/15 13:19:03;;;;;;;2.15;2.05;;;41.10;33.10;;;;;;5047985;28;20300;-83
2022/06/15 13:21:49;;;;;;;2.13;2.03;;;41.00;33.00;;;;;;5047988;28;20249;-83
2022/06/15 13:24:16;;;;;;;2.28;2.10;;;41.10;33.30;;;;;;5048187;28;20230;-82
2022/06/15 13:26:56;;;;;;;2.40;2.30;;;40.10;32.40;;;;;;5047883;28;20234;-81
2022/06/15 13:29:29;;;;;;;2.30;2.20;;;38.80;35.40;;;;;;5049258;28;20283;-82
2022/06/15 13:32:00;;;;;;;2.65;2.45;;;39.10;32.80;;;;;;5047805;28;20686;-84
2022/06/15 13:34:49;;;;;;;2.50;2.40;;;39.70;34.70;;;;;;5048702;28;20200;-83
2022/06/15 13:37:26;;;;;;;2.45;2.35;;;40.30;33.60;;;;;;5047847;28;20207;-83